createdAt,value
2023-01-22T00:01:03.061Z,125.63
2023-01-22T00:03:29.724Z,109.57
2023-01-22T00:05:56.299Z,126.32
2023-01-22T00:08:22.849Z,123.43
2023-01-22T00:10:53.127Z,115.40
2023-01-22T00:13:20.348Z,117.38
2023-01-22T00:15:47.001Z,131.85
2023-01-22T00:18:13.849Z,103.57
2023-01-22T00:20:41.653Z,142.18
2023-01-22T00:23:08.375Z,119.05
2023-01-22T00:25:35.024Z,136.45
2023-01-22T00:28:01.601Z,122.32
2023-01-22T00:30:28.150Z,123.55
2023-01-22T00:32:54.721Z,130.68
2023-01-22T00:35:21.241Z,112.25
2023-01-22T00:37:48.330Z,117.93
2023-01-22T00:40:15.330Z,113.50
2023-01-22T00:42:41.889Z,113.18
2023-01-22T00:45:10.256Z,128.65
2023-01-22T00:47:38.546Z,101.90
2023-01-22T00:50:05.275Z,107.60
2023-01-22T00:52:31.972Z,109.75
2023-01-22T00:54:58.555Z,103.70
2023-01-22T00:57:25.682Z,113.72
2023-01-22T00:59:52.500Z,88.65
2023-01-22T01:02:19.342Z,100.22
2023-01-22T01:04:45.955Z,110.57
2023-01-22T01:07:12.489Z,89.22
2023-01-22T01:09:39.027Z,95.30
2023-01-22T01:12:06.166Z,79.57
2023-01-22T01:14:32.962Z,103.45
2023-01-22T01:16:59.465Z,93.45
2023-01-22T01:19:25.961Z,99.07
2023-01-22T01:21:52.630Z,86.93
2023-01-22T01:24:19.317Z,93.57
2023-01-22T01:26:45.856Z,93.35
2023-01-22T01:29:12.413Z,87.40
2023-01-22T01:31:39.252Z,79.28
2023-01-22T01:34:05.806Z,103.75
2023-01-22T01:36:48.345Z,93.03
2023-01-22T01:39:16.052Z,69.40
2023-01-22T01:41:42.587Z,66.05
2023-01-22T01:44:22.824Z,77.70
2023-01-22T01:46:55.579Z,73.65
2023-01-22T01:49:31.182Z,84.50
2023-01-22T01:51:59.879Z,75.38
2023-01-22T01:54:27.481Z,64.03
2023-01-22T01:56:57.606Z,75.50
2023-01-22T01:59:24.205Z,62.97
2023-01-22T02:01:53.730Z,59.63
2023-01-22T02:04:20.466Z,71.68
2023-01-22T02:06:47.117Z,58.97
2023-01-22T02:09:14.339Z,67.82
2023-01-22T02:11:40.915Z,54.38
2023-01-22T02:14:10.076Z,63.00
2023-01-22T02:16:37.620Z,66.90
2023-01-22T02:19:04.721Z,62.47
2023-01-22T02:21:33.206Z,57.83
2023-01-22T02:23:59.922Z,58.50
2023-01-22T02:26:27.641Z,64.97
2023-01-22T02:28:54.551Z,56.00
2023-01-22T02:31:24.432Z,61.65
2023-01-22T02:33:51.098Z,62.00
2023-01-22T02:36:17.744Z,62.05
2023-01-22T02:38:44.313Z,60.13
2023-01-22T02:41:11.334Z,68.85
2023-01-22T02:43:38.294Z,60.58
2023-01-22T02:46:05.662Z,64.88
2023-01-22T02:48:32.293Z,65.25
2023-01-22T02:50:58.834Z,62.40
2023-01-22T02:53:25.353Z,71.30
2023-01-22T02:55:51.887Z,57.80
2023-01-22T02:58:18.395Z,65.13
2023-01-22T03:00:44.964Z,62.00
2023-01-22T03:03:15.607Z,63.78
2023-01-22T03:05:44.557Z,57.63
2023-01-22T03:08:11.340Z,66.55
2023-01-22T03:10:37.914Z,69.32
2023-01-22T03:13:23.319Z,55.22
2023-01-22T03:16:10.976Z,52.63
2023-01-22T03:18:55.979Z,58.53
2023-01-22T03:21:22.713Z,54.25
2023-01-22T03:23:50.593Z,58.65
2023-01-22T03:26:18.738Z,41.67
2023-01-22T03:28:46.175Z,47.97
2023-01-22T03:31:13.657Z,58.72
2023-01-22T03:33:41.112Z,49.80
2023-01-22T03:36:09.826Z,45.50
2023-01-22T03:38:38.871Z,54.40
2023-01-22T03:41:11.676Z,55.53
2023-01-22T03:43:41.821Z,62.13
2023-01-22T03:46:12.739Z,50.95
2023-01-22T03:48:42.455Z,70.07
2023-01-22T03:51:13.804Z,60.00
2023-01-22T03:53:41.097Z,63.95
2023-01-22T03:56:10.387Z,62.42
2023-01-22T03:58:37.849Z,52.20
2023-01-22T04:01:07.248Z,57.15
2023-01-22T04:03:34.404Z,59.22
2023-01-22T04:06:01.683Z,61.60
2023-01-22T04:08:30.103Z,61.78
2023-01-22T04:10:57.309Z,56.15
2023-01-22T04:13:24.582Z,53.15
2023-01-22T04:15:52.346Z,51.50
2023-01-22T04:18:38.964Z,50.22
2023-01-22T04:21:24.867Z,51.88
2023-01-22T04:23:56.702Z,57.72
2023-01-22T04:26:23.268Z,54.30
2023-01-22T04:28:49.851Z,52.45
2023-01-22T04:31:18.898Z,50.33
2023-01-22T04:33:55.699Z,53.10
2023-01-22T04:36:28.872Z,52.33
2023-01-22T04:38:55.669Z,56.58
2023-01-22T04:41:22.453Z,57.05
2023-01-22T04:43:49.024Z,47.22
2023-01-22T04:46:16.269Z,50.90
2023-01-22T04:48:42.926Z,61.10
2023-01-22T04:51:11.075Z,43.65
2023-01-22T04:53:38.275Z,52.83
2023-01-22T04:56:06.687Z,50.03
2023-01-22T04:58:33.918Z,56.78
2023-01-22T05:01:00.659Z,51.90
2023-01-22T05:03:27.267Z,47.63
2023-01-22T05:05:54.001Z,48.67
2023-01-22T05:08:20.624Z,54.90
2023-01-22T05:10:47.758Z,50.75
2023-01-22T05:13:25.419Z,44.80
2023-01-22T05:15:52.130Z,61.33
2023-01-22T05:18:18.753Z,44.92
2023-01-22T05:20:48.928Z,52.22
2023-01-22T05:23:17.128Z,48.17
2023-01-22T05:25:49.907Z,49.25
2023-01-22T05:28:21.141Z,54.40
2023-01-22T05:31:08.182Z,55.42
2023-01-22T05:33:42.927Z,48.28
2023-01-22T05:36:12.825Z,57.55
2023-01-22T05:38:39.450Z,53.83
2023-01-22T05:41:06.339Z,53.83
2023-01-22T05:43:38.343Z,53.88
2023-01-22T05:46:06.386Z,55.20
2023-01-22T05:48:51.900Z,59.03
2023-01-22T05:51:23.536Z,61.95
2023-01-22T05:53:50.753Z,46.13
2023-01-22T05:56:17.717Z,52.53
2023-01-22T05:58:44.420Z,50.05
2023-01-22T06:01:11.375Z,61.17
2023-01-22T06:03:41.355Z,51.65
2023-01-22T06:06:10.516Z,57.22
2023-01-22T06:08:37.729Z,54.38
2023-01-22T06:11:06.405Z,45.70
2023-01-22T06:13:33.887Z,51.50
2023-01-22T06:16:08.548Z,53.22
2023-01-22T06:18:54.742Z,59.05
2023-01-22T06:21:23.111Z,56.97
2023-01-22T06:23:50.013Z,47.67
2023-01-22T06:26:16.979Z,55.20
2023-01-22T06:28:43.803Z,48.30
2023-01-22T06:31:11.016Z,56.10
2023-01-22T06:33:38.165Z,48.22
2023-01-22T06:36:05.566Z,52.97
2023-01-22T06:38:32.124Z,46.17
2023-01-22T06:41:01.403Z,46.40
2023-01-22T06:43:29.681Z,51.70
2023-01-22T06:45:56.501Z,44.40
2023-01-22T06:48:43.513Z,47.13
2023-01-22T06:51:10.815Z,48.92
2023-01-22T06:53:37.609Z,47.63
2023-01-22T06:56:04.931Z,54.67
2023-01-22T06:58:31.508Z,53.60
2023-01-22T07:01:01.899Z,49.50
2023-01-22T07:03:28.837Z,44.75
2023-01-22T07:05:57.196Z,48.75
2023-01-22T07:08:23.867Z,44.55
2023-01-22T07:10:50.488Z,52.80
2023-01-22T07:13:17.223Z,54.67
2023-01-22T07:15:43.768Z,49.92
2023-01-22T07:18:10.842Z,43.53
2023-01-22T07:20:37.431Z,55.88
2023-01-22T07:23:04.056Z,51.78
2023-01-22T07:25:30.579Z,41.83
2023-01-22T07:28:00.802Z,52.97
2023-01-22T07:30:27.787Z,46.97
2023-01-22T07:32:54.551Z,46.22
2023-01-22T07:35:21.103Z,43.58
2023-01-22T07:37:55.205Z,50.33
2023-01-22T07:40:21.731Z,48.83
2023-01-22T07:42:48.268Z,45.95
2023-01-22T07:45:15.128Z,46.33
2023-01-22T07:47:41.696Z,45.83
2023-01-22T07:50:08.523Z,45.50
2023-01-22T07:52:35.007Z,50.30
2023-01-22T07:55:01.555Z,50.78
2023-01-22T07:57:28.111Z,50.75
2023-01-22T07:59:54.841Z,47.00
2023-01-22T08:02:21.443Z,42.15
2023-01-22T08:04:48.087Z,43.30
2023-01-22T08:07:18.299Z,45.58
2023-01-22T08:09:44.861Z,44.83
2023-01-22T08:12:11.407Z,45.70
2023-01-22T08:14:37.968Z,43.45
2023-01-22T08:17:04.673Z,39.30
2023-01-22T08:19:31.813Z,41.75
2023-01-22T08:21:58.357Z,43.38
2023-01-22T08:24:24.943Z,40.42
2023-01-22T08:26:51.675Z,42.15
2023-01-22T08:29:18.476Z,39.97
2023-01-22T08:31:45.345Z,49.30
2023-01-22T08:34:12.141Z,40.13
2023-01-22T08:36:38.748Z,44.20
2023-01-22T08:39:05.574Z,43.58
2023-01-22T08:41:32.251Z,42.90
2023-01-22T08:43:58.759Z,35.13
2023-01-22T08:46:25.318Z,42.85
2023-01-22T08:48:51.988Z,36.08
2023-01-22T08:51:18.678Z,40.70
2023-01-22T08:53:45.392Z,40.47
2023-01-22T08:56:11.994Z,38.83
2023-01-22T08:58:38.528Z,41.72
2023-01-22T09:01:05.350Z,39.15
2023-01-22T09:03:32.019Z,37.78
2023-01-22T09:05:59.140Z,37.40
2023-01-22T09:08:25.908Z,38.40
2023-01-22T09:10:52.521Z,40.70
2023-01-22T09:13:19.429Z,36.70
2023-01-22T09:15:46.078Z,36.95
2023-01-22T09:18:13.870Z,37.40
2023-01-22T09:20:40.951Z,43.03
2023-01-22T09:23:07.955Z,40.78
2023-01-22T09:25:34.729Z,38.03
2023-01-22T09:28:01.756Z,35.15
2023-01-22T09:30:30.356Z,31.35
2023-01-22T09:32:57.241Z,44.70
2023-01-22T09:35:23.974Z,40.42
2023-01-22T09:37:50.599Z,36.60
2023-01-22T09:40:37.484Z,45.70
2023-01-22T09:43:06.665Z,45.05
2023-01-22T09:45:36.093Z,46.15
2023-01-22T09:48:06.411Z,38.33
2023-01-22T09:50:34.035Z,36.58
2023-01-22T09:53:03.555Z,41.28
2023-01-22T09:55:31.149Z,45.92
2023-01-22T09:58:00.298Z,40.63
2023-01-22T10:00:39.277Z,38.22
2023-01-22T10:03:11.452Z,38.80
2023-01-22T10:05:41.091Z,45.53
2023-01-22T10:08:17.052Z,41.85
2023-01-22T10:10:43.849Z,44.15
2023-01-22T10:13:13.609Z,50.47
2023-01-22T10:15:40.309Z,48.50
2023-01-22T10:18:26.025Z,43.92
2023-01-22T10:20:53.439Z,46.00
2023-01-22T10:23:22.878Z,47.90
2023-01-22T10:25:51.259Z,47.53
2023-01-22T10:28:23.662Z,45.47
2023-01-22T10:30:51.622Z,49.92
2023-01-22T10:33:22.729Z,46.65
2023-01-22T10:35:50.803Z,44.75
2023-01-22T10:38:28.343Z,51.67
2023-01-22T10:40:56.697Z,43.45
2023-01-22T10:43:31.696Z,49.65
2023-01-22T10:46:04.849Z,44.20
2023-01-22T10:48:31.835Z,47.47
2023-01-22T10:51:03.084Z,42.63
2023-01-22T10:53:31.527Z,39.90
2023-01-22T10:55:59.958Z,52.58
2023-01-22T10:58:36.858Z,48.30
2023-01-22T11:01:06.631Z,44.92
2023-01-22T11:03:37.535Z,49.53
2023-01-22T11:06:12.656Z,45.95
2023-01-22T11:08:45.747Z,48.87
2023-01-22T11:11:15.502Z,48.90
2023-01-22T11:13:52.896Z,45.95
2023-01-22T11:16:23.964Z,47.20
2023-01-22T11:18:55.852Z,48.20
2023-01-22T11:21:28.159Z,48.35
2023-01-22T11:23:57.996Z,47.23
2023-01-22T11:26:28.599Z,46.63
2023-01-22T11:29:15.595Z,46.23
2023-01-22T11:31:48.695Z,47.13
2023-01-22T11:34:18.393Z,50.67
2023-01-22T11:36:52.302Z,48.97
2023-01-22T11:39:35.366Z,54.92
2023-01-22T11:42:02.061Z,51.73
2023-01-22T11:44:47.735Z,49.63
2023-01-22T11:47:43.234Z,47.70
2023-01-22T11:50:28.114Z,50.30
2023-01-22T11:53:05.098Z,60.30
2023-01-22T11:55:40.904Z,46.13
2023-01-22T11:58:26.249Z,51.47
2023-01-22T12:01:05.169Z,40.93
2023-01-22T12:03:50.375Z,42.10
2023-01-22T12:06:22.821Z,49.13
2023-01-22T12:08:55.359Z,50.43
2023-01-22T12:11:48.060Z,47.07
2023-01-22T12:14:20.640Z,53.83
2023-01-22T12:16:50.427Z,51.63
2023-01-22T12:19:26.193Z,56.60
2023-01-22T12:22:12.647Z,54.60
2023-01-22T12:24:41.350Z,54.50
2023-01-22T12:27:18.067Z,57.93
2023-01-22T12:29:49.596Z,48.43
2023-01-22T12:32:19.031Z,48.10
2023-01-22T12:34:49.251Z,50.20
2023-01-22T12:37:18.788Z,52.37
2023-01-22T12:39:45.387Z,56.20
2023-01-22T12:42:32.687Z,56.70
2023-01-22T12:45:06.403Z,51.87
2023-01-22T12:47:40.626Z,52.27
2023-01-22T12:50:24.219Z,52.50
2023-01-22T12:53:04.936Z,48.90
2023-01-22T12:55:31.670Z,58.80
2023-01-22T12:57:58.796Z,56.70
2023-01-22T13:00:40.471Z,54.23
2023-01-22T13:03:33.083Z,65.40
2023-01-22T13:06:00.969Z,47.23
2023-01-22T13:08:37.663Z,55.07
2023-01-22T13:11:09.541Z,54.63
2023-01-22T13:13:44.597Z,59.47
2023-01-22T13:16:30.335Z,56.57
2023-01-22T13:18:59.802Z,55.63
2023-01-22T13:21:28.665Z,53.17
2023-01-22T13:24:02.222Z,60.53
2023-01-22T13:26:30.662Z,55.90
2023-01-22T13:28:59.313Z,57.03
2023-01-22T13:31:26.207Z,59.43
2023-01-22T13:33:58.354Z,67.40
2023-01-22T13:36:25.712Z,55.50
2023-01-22T13:38:56.990Z,50.47
2023-01-22T13:41:28.383Z,52.88
2023-01-22T13:43:55.357Z,42.63
2023-01-22T13:46:22.218Z,54.40
2023-01-22T13:48:49.139Z,58.45
2023-01-22T13:51:18.473Z,60.33
2023-01-22T13:53:55.072Z,59.65
2023-01-22T13:56:22.940Z,55.25
2023-01-22T13:58:49.824Z,55.88
2023-01-22T14:01:30.291Z,49.65
2023-01-22T14:04:10.553Z,52.40
2023-01-22T14:06:45.502Z,53.60
2023-01-22T14:09:12.236Z,53.25
2023-01-22T14:11:39.457Z,56.88
2023-01-22T14:14:19.383Z,63.95
2023-01-22T14:16:46.096Z,55.30
2023-01-22T14:19:13.356Z,55.35
2023-01-22T14:21:40.194Z,52.97
2023-01-22T14:24:07.202Z,56.50
2023-01-22T14:26:33.915Z,57.13
2023-01-22T14:29:00.849Z,60.92
2023-01-22T14:31:27.612Z,64.57
2023-01-22T14:33:54.255Z,60.63
2023-01-22T14:36:20.837Z,59.53
2023-01-22T14:38:49.637Z,53.80
2023-01-22T14:41:16.334Z,61.97
2023-01-22T14:43:43.126Z,58.15
2023-01-22T14:46:09.865Z,68.60
2023-01-22T14:48:36.717Z,67.68
2023-01-22T14:51:07.624Z,57.35
2023-01-22T14:53:35.015Z,67.10
2023-01-22T14:56:01.641Z,57.47
2023-01-22T14:58:28.306Z,68.57
2023-01-22T15:00:54.976Z,65.70
2023-01-22T15:03:21.641Z,68.10
2023-01-22T15:05:52.003Z,66.45
2023-01-22T15:08:18.658Z,64.70
2023-01-22T15:10:45.649Z,66.45
2023-01-22T15:13:12.343Z,65.63
2023-01-22T15:15:39.077Z,61.17
2023-01-22T15:18:05.814Z,58.80
2023-01-22T15:20:32.568Z,55.70
2023-01-22T15:23:00.713Z,69.80
2023-01-22T15:25:32.303Z,59.00
2023-01-22T15:27:59.089Z,61.03
2023-01-22T15:30:26.030Z,57.55
2023-01-22T15:32:52.789Z,55.88
2023-01-22T15:35:19.390Z,60.90
2023-01-22T15:37:47.478Z,57.90
2023-01-22T15:40:14.350Z,52.92
2023-01-22T15:42:41.078Z,67.00
2023-01-22T15:45:07.941Z,68.20
2023-01-22T15:47:34.526Z,59.40
2023-01-22T15:50:01.152Z,67.93
2023-01-22T15:52:27.857Z,69.38
2023-01-22T15:54:54.556Z,62.53
2023-01-22T15:57:21.199Z,62.28
2023-01-22T15:59:47.860Z,68.70
2023-01-22T16:02:14.569Z,71.78
2023-01-22T16:04:41.301Z,70.43
2023-01-22T16:07:08.012Z,76.32
2023-01-22T16:09:34.695Z,79.22
2023-01-22T16:12:01.327Z,73.75
2023-01-22T16:14:29.143Z,81.97
2023-01-22T16:16:55.779Z,78.55
2023-01-22T16:19:22.413Z,73.15
2023-01-22T16:21:49.118Z,75.30
2023-01-22T16:24:19.439Z,75.18
2023-01-22T16:26:46.305Z,83.10
2023-01-22T16:29:13.139Z,90.93
2023-01-22T16:31:39.951Z,83.10
2023-01-22T16:34:08.882Z,99.60
2023-01-22T16:36:35.928Z,82.28
2023-01-22T16:39:02.684Z,84.10
2023-01-22T16:41:33.720Z,79.85
2023-01-22T16:44:05.166Z,87.63
2023-01-22T16:46:32.531Z,93.05
2023-01-22T16:48:59.178Z,87.32
2023-01-22T16:51:26.985Z,85.22
2023-01-22T16:53:54.571Z,106.13
2023-01-22T16:56:21.221Z,93.40
2023-01-22T16:58:47.827Z,93.78
2023-01-22T17:01:14.847Z,100.10
2023-01-22T17:03:41.952Z,96.47
2023-01-22T17:06:15.366Z,92.78
2023-01-22T17:08:42.014Z,86.22
2023-01-22T17:11:13.701Z,92.68
2023-01-22T17:13:40.231Z,96.97
2023-01-22T17:16:07.145Z,104.63
2023-01-22T17:18:33.822Z,92.70
2023-01-22T17:21:06.655Z,101.68
2023-01-22T17:23:33.581Z,105.00
2023-01-22T17:26:05.297Z,116.95
2023-01-22T17:28:32.216Z,89.05
2023-01-22T17:30:58.943Z,107.63
2023-01-22T17:33:25.727Z,92.40
2023-01-22T17:35:57.271Z,96.35
2023-01-22T17:38:24.961Z,95.45
2023-01-22T17:40:51.608Z,93.32
2023-01-22T17:43:18.220Z,108.55
2023-01-22T17:45:45.004Z,100.45
2023-01-22T17:48:12.953Z,95.90
2023-01-22T17:50:39.728Z,106.05
2023-01-22T17:53:07.602Z,101.38
2023-01-22T17:55:34.209Z,101.00
2023-01-22T17:58:01.043Z,103.10
2023-01-22T18:00:27.893Z,102.40
2023-01-22T18:02:54.689Z,99.15
2023-01-22T18:05:22.903Z,105.20
2023-01-22T18:07:49.888Z,104.78
2023-01-22T18:10:16.830Z,113.78
2023-01-22T18:12:44.627Z,114.32
2023-01-22T18:15:12.857Z,117.13
2023-01-22T18:17:39.486Z,105.82
2023-01-22T18:20:06.861Z,104.85
2023-01-22T18:22:33.586Z,111.88
2023-01-22T18:25:00.539Z,88.43
2023-01-22T18:27:27.700Z,94.05
2023-01-22T18:29:54.452Z,95.85
2023-01-22T18:32:21.659Z,103.15
2023-01-22T18:34:48.291Z,108.07
2023-01-22T18:37:14.938Z,118.72
2023-01-22T18:39:41.848Z,102.10
2023-01-22T18:42:08.543Z,109.45
2023-01-22T18:44:36.241Z,95.82
2023-01-22T18:47:03.969Z,119.25
2023-01-22T18:49:30.713Z,95.65
2023-01-22T18:52:00.968Z,100.60
2023-01-22T18:54:29.148Z,104.03
2023-01-22T18:56:55.916Z,107.53
2023-01-22T18:59:22.682Z,99.30
2023-01-22T19:01:52.457Z,105.13
2023-01-22T19:04:21.724Z,105.35
2023-01-22T19:06:53.062Z,107.90
2023-01-22T19:09:20.287Z,100.47
2023-01-22T19:11:47.882Z,92.60
2023-01-22T19:14:16.470Z,104.43
2023-01-22T19:16:44.920Z,102.32
2023-01-22T19:19:13.642Z,98.70
2023-01-22T19:21:43.362Z,87.03
2023-01-22T19:24:11.321Z,107.20
2023-01-22T19:26:38.306Z,98.88
2023-01-22T19:29:08.124Z,98.80
2023-01-22T19:31:40.017Z,111.57
2023-01-22T19:34:07.237Z,108.85
2023-01-22T19:36:35.044Z,113.40
2023-01-22T19:39:03.248Z,106.68
2023-01-22T19:41:30.484Z,94.22
2023-01-22T19:43:58.362Z,119.32
2023-01-22T19:46:26.116Z,127.57
2023-01-22T19:48:53.351Z,102.22
2023-01-22T19:51:22.216Z,111.78
2023-01-22T19:53:48.964Z,109.32
2023-01-22T19:56:18.475Z,97.68
2023-01-22T19:58:45.303Z,115.88
2023-01-22T20:01:12.506Z,113.57
2023-01-22T20:03:39.279Z,122.90
2023-01-22T20:06:06.976Z,107.43
2023-01-22T20:08:35.977Z,121.68
2023-01-22T20:11:06.146Z,121.68
2023-01-22T20:13:33.255Z,114.93
2023-01-22T20:16:01.048Z,119.13
2023-01-22T20:18:28.458Z,111.83
2023-01-22T20:20:56.104Z,118.63
2023-01-22T20:23:23.343Z,128.00
2023-01-22T20:25:50.323Z,115.35
2023-01-22T20:28:17.504Z,126.03
2023-01-22T20:30:45.374Z,113.75
2023-01-22T20:33:12.093Z,130.93
2023-01-22T20:35:42.160Z,125.00
2023-01-22T20:38:09.188Z,136.15
2023-01-22T20:40:39.041Z,106.40
2023-01-22T20:43:05.827Z,126.93
2023-01-22T20:45:32.646Z,128.90
2023-01-22T20:47:59.309Z,150.50
2023-01-22T20:50:26.244Z,129.43
2023-01-22T20:52:53.175Z,136.18
2023-01-22T20:55:21.066Z,129.38
2023-01-22T20:57:47.680Z,128.55
2023-01-22T21:00:14.469Z,109.30
2023-01-22T21:02:41.113Z,129.15
2023-01-22T21:05:08.353Z,117.93
2023-01-22T21:07:35.030Z,124.57
2023-01-22T21:10:01.714Z,107.55
2023-01-22T21:12:28.375Z,131.65
2023-01-22T21:14:55.295Z,123.95
2023-01-22T21:17:22.042Z,116.38
2023-01-22T21:19:48.668Z,128.80
2023-01-22T21:22:15.423Z,136.77
2023-01-22T21:24:41.997Z,137.15
2023-01-22T21:27:08.785Z,124.18
2023-01-22T21:29:35.757Z,116.32
2023-01-22T21:32:03.079Z,123.53
2023-01-22T21:34:30.178Z,142.10
2023-01-22T21:36:58.731Z,125.45
2023-01-22T21:39:28.248Z,131.25
2023-01-22T21:42:15.509Z,122.07
2023-01-22T21:45:01.804Z,145.25
2023-01-22T21:47:29.037Z,134.00
2023-01-22T21:49:55.886Z,122.40
2023-01-22T21:52:22.479Z,128.38
2023-01-22T21:54:49.166Z,146.88
2023-01-22T21:57:16.482Z,129.90
2023-01-22T21:59:43.646Z,115.35
2023-01-22T22:02:14.868Z,117.65
2023-01-22T22:04:42.069Z,115.45
2023-01-22T22:07:08.695Z,134.77
2023-01-22T22:09:35.309Z,119.50
2023-01-22T22:12:02.831Z,116.13
2023-01-22T22:14:30.080Z,118.70
2023-01-22T22:16:57.083Z,131.80
2023-01-22T22:19:23.995Z,140.05
2023-01-22T22:21:51.233Z,124.63
2023-01-22T22:24:18.481Z,115.25
2023-01-22T22:26:45.121Z,121.25
2023-01-22T22:29:11.998Z,111.75
2023-01-22T22:31:40.176Z,140.27
2023-01-22T22:34:07.110Z,141.43
2023-01-22T22:36:34.126Z,140.60
2023-01-22T22:39:03.606Z,123.03
2023-01-22T22:41:32.106Z,125.70
2023-01-22T22:43:58.922Z,125.32
2023-01-22T22:46:30.018Z,138.45
2023-01-22T22:48:57.882Z,126.25
2023-01-22T22:51:25.891Z,133.00
2023-01-22T22:53:53.716Z,126.10
2023-01-22T22:56:20.697Z,126.30
2023-01-22T22:58:47.430Z,149.50
2023-01-22T23:01:15.504Z,139.48
2023-01-22T23:03:42.361Z,133.80
2023-01-22T23:06:20.092Z,145.35
2023-01-22T23:08:52.412Z,138.02
2023-01-22T23:11:19.997Z,134.90
2023-01-22T23:13:49.386Z,129.95
2023-01-22T23:16:18.282Z,162.90
2023-01-22T23:18:45.372Z,142.30
2023-01-22T23:21:13.617Z,143.68
2023-01-22T23:23:40.412Z,133.40
2023-01-22T23:26:08.348Z,153.88
2023-01-22T23:28:34.921Z,141.57
2023-01-22T23:31:05.420Z,135.50
2023-01-22T23:33:32.038Z,141.73
2023-01-22T23:36:06.545Z,158.43
2023-01-22T23:38:33.191Z,166.50
2023-01-22T23:41:00.508Z,177.88
2023-01-22T23:43:27.369Z,150.00
2023-01-22T23:45:54.007Z,155.52
2023-01-22T23:48:20.807Z,164.25
2023-01-22T23:50:48.550Z,152.83
2023-01-22T23:53:15.503Z,154.82
2023-01-22T23:55:42.069Z,210.52
2023-01-22T23:58:08.624Z,182.88
